Airfield :
LOGIN :

Register | Disclaimer

   EN    FR    IT 

 










Legend :    VFR   Marginal VFR   IFR   Intensive IFR   Very Intensive IFR
Visi :
Ceiling :
>= 8 km
>= 3000ft
5 to 8 km
1000 to 3000 ft
1500m to 5 km
500 to 1000 ft
800 to 1500m
200 to 500 ft
< 800m
< 200 ft
Symbols :   Thunderstorms  Fog  Heavy snow  Heavy precipitations  Wind > 20 kt
SIGMETs :     Misc.  Thunderstorms  Icing  Turbulence  Mountain Waves  Volcanic Ashes







- Airport Elevation : 461 ft
- IATA code : WIE


ETOU - Wiesbaden Army

CURRENT METAR :
  • 220256Z AUTO 30004KT 9999 FEW047 09/05 A3024 RMK AO2 SLP241 T00910051 51001 $

EXPIRED METARs :
  • 220156Z AUTO 29006KT 9999 CLR 09/05 A3024 RMK AO2 SLP241 T00940052 $
  • 220056Z AUTO 31006KT 9999 CLR 10/05 A3024 RMK AO2 SLP241 T01010053 $

TAF TAF ETOU
Valid from the 22 at 03:00 until the 23 at 09:00 UTC


220259Z 2203/2309 33009KT 9999 FEW045 QNH3020INS
BECMG 2206/2207 32009KT 9999 BKN030 QNH3020INS
TEMPO 2211/2219 32015G20KT
BECMG 2218/2219 VRB06KT 9999 SCT050 QNH3022INS TX19/2213Z TN08/2204Z
No reported NOTAMs for that airfield.



MET'MAP, your aeronautical weather chart ! - Copyright ORBIFLY December 2007 - Disclaimer

ORBIFLY MET'MAP TEAM :

Programming & Development : Alexandra Zaïnal
Concept & Development : Baudouin d'Aumeries
Co-Development & Prog : Marc-Olivier Méhu
Technical & hardware support : Manuel Goepfert

Contact : metmap@orbifly.com




SOURCES & CREDITS :

   NOAA